Time;durP1;ratioP1;P1;durP2;ratioP2;P2;SDS_P1;SDS_P2;PMS_P1;PMS_P2;Temp;Humidity;BMP_temperature;BMP_pressure;BME280_temperature;BME280_humidity;BME280_pressure;Samples;Min_cycle;Max_cycle;Signal;HPM_P1;HPM_P2
2021/05/11 00:00:48;;;;;;;9.75;5.12;;;;;;;17.22;54.11;99965.84;1851961;77;22137;-68
2021/05/11 00:03:27;;;;;;;13.20;5.85;;;;;;;17.20;54.26;99959.87;1816071;77;22359;-68
2021/05/11 00:06:06;;;;;;;14.23;7.53;;;;;;;17.19;54.43;99963.60;1852873;77;22218;-68
2021/05/11 00:08:46;;;;;;;11.65;5.30;;;;;;;17.16;54.56;99962.70;1796694;77;22390;-68
2021/05/11 00:11:26;;;;;;;8.63;5.65;;;;;;;17.10;54.70;99964.92;1815883;77;22169;-68
2021/05/11 00:14:11;;;;;;;12.55;6.65;;;;;;;17.04;54.89;99948.30;1852525;77;22526;-68
2021/05/11 00:16:50;;;;;;;13.50;5.62;;;;;;;16.98;55.05;99954.59;1816249;77;22715;-68
2021/05/11 00:19:29;;;;;;;9.70;5.42;;;;;;;16.96;55.19;99956.15;1811323;78;22731;-68
2021/05/11 00:22:09;;;;;;;10.70;6.20;;;;;;;16.94;55.35;99948.83;1889680;76;22571;-68
2021/05/11 00:24:48;;;;;;;12.53;6.15;;;;;;;16.91;55.48;99947.10;1811531;77;23112;-68
2021/05/11 00:27:27;;;;;;;11.88;5.28;;;;;;;16.87;55.61;99949.93;1852866;77;22376;-68
2021/05/11 00:30:07;;;;;;;15.85;7.03;;;;;;;16.83;55.74;99953.59;1816258;77;23310;-68
2021/05/11 00:32:46;;;;;;;12.88;5.30;;;;;;;16.81;55.84;99948.13;1852835;77;22865;-69
2021/05/11 00:35:25;;;;;;;9.05;4.78;;;;;;;16.78;56.00;99951.27;1815990;77;22514;-68
2021/05/11 00:38:10;;;;;;;8.53;5.35;;;;;;;16.75;56.08;99947.64;1852658;77;22479;-68
2021/05/11 00:40:49;;;;;;;11.25;5.12;;;;;;;16.69;56.21;99957.44;1816122;77;22416;-68
2021/05/11 00:43:28;;;;;;;10.05;5.30;;;;;;;16.61;56.44;99954.19;1816276;77;22217;-68
2021/05/11 00:46:06;;;;;;;14.25;5.00;;;;;;;16.64;56.44;99948.39;1816152;77;23137;-68
2021/05/11 00:48:46;;;;;;;8.75;5.03;;;;;;;16.61;56.54;99948.28;1816191;77;22423;-69
2021/05/11 00:51:31;;;;;;;10.20;4.85;;;;;;;16.58;56.66;99947.91;1811411;78;23342;-68
2021/05/11 00:54:10;;;;;;;14.00;6.20;;;;;;;16.57;56.76;99940.89;1816294;77;22158;-68
2021/05/11 00:56:48;;;;;;;12.68;5.95;;;;;;;16.54;56.91;99931.88;1816383;77;22420;-68
2021/05/11 00:59:29;;;;;;;11.20;6.50;;;;;;;16.47;57.01;99932.73;1889370;75;22508;-68
2021/05/11 01:02:09;;;;;;;9.35;5.35;;;;;;;16.38;57.18;99928.68;1816080;77;22430;-69
2021/05/11 01:04:48;;;;;;;13.83;6.22;;;;;;;16.42;57.25;99926.38;1816165;77;22966;-68
2021/05/11 01:07:27;;;;;;;14.73;6.45;;;;;;;16.47;57.40;99923.31;1805930;77;22365;-68
2021/05/11 01:10:06;;;;;;;9.75;6.37;;;;;;;16.44;57.50;99920.23;1889221;76;23249;-68
2021/05/11 01:12:44;;;;;;;12.47;5.97;;;;;;;16.40;57.61;99926.58;1811566;78;22338;-68
2021/05/11 01:15:23;;;;;;;8.80;4.90;;;;;;;16.40;57.73;99932.48;1852915;77;22349;-68
2021/05/11 01:18:13;;;;;;;17.92;6.67;;;;;;;16.39;57.86;99930.34;1816293;77;22422;-68
2021/05/11 01:21:03;;;;;;;14.55;6.85;;;;;;;16.37;57.96;99928.37;1852151;77;23039;-68
2021/05/11 01:26:44;;;;;;;12.50;6.70;;;;;;;16.42;58.38;99923.16;1816401;77;22640;-68
2021/05/11 01:29:27;;;;;;;11.55;6.50;;;;;;;16.37;58.58;99918.95;1842634;77;27792;-68
2021/05/11 01:43:58;;;;;;;17.87;7.20;;;;;;;16.23;59.20;99912.02;1816192;77;22641;-68
2021/05/11 01:46:56;;;;;;;9.95;6.60;;;;;;;16.18;59.28;99912.38;1815782;77;22505;-68
2021/05/11 02:24:03;;;;;;;15.95;6.92;;;;;;;15.74;60.45;99887.72;1852631;77;22563;-68
2021/05/11 02:26:41;;;;;;;12.85;5.97;;;;;;;15.80;60.53;99886.85;1852710;77;22414;-68
2021/05/11 02:29:19;;;;;;;10.10;6.12;;;;;;;15.85;60.62;99884.35;1816303;77;22499;-68
2021/05/11 02:31:58;;;;;;;10.25;6.53;;;;;;;15.92;60.67;99881.10;1816304;77;22329;-68
2021/05/11 02:34:37;;;;;;;11.15;5.72;;;;;;;15.96;60.78;99882.31;1811571;78;22525;-68
2021/05/11 02:37:16;;;;;;;10.63;5.28;;;;;;;15.95;60.87;99883.35;1852879;77;22538;-68
2021/05/11 02:39:57;;;;;;;12.47;6.40;;;;;;;15.94;60.95;99879.83;1815783;77;22260;-68
2021/05/11 02:42:38;;;;;;;11.20;6.20;;;;;;;15.90;61.00;99880.51;1815937;77;22415;-68
2021/05/11 02:45:16;;;;;;;11.40;5.55;;;;;;;15.87;61.06;99866.95;1816368;77;22772;-68
2021/05/11 02:47:56;;;;;;;8.25;5.33;;;;;;;15.85;61.08;99873.59;1815747;77;22481;-68
2021/05/11 02:50:36;;;;;;;12.73;6.08;;;;;;;15.86;61.16;99868.53;1852895;77;22486;-68
2021/05/11 02:53:14;;;;;;;12.75;5.37;;;;;;;15.86;61.24;99875.25;1811624;78;22481;-68
2021/05/11 02:55:53;;;;;;;11.68;6.08;;;;;;;15.85;61.30;99880.32;1816281;77;22486;-68
2021/05/11 02:58:34;;;;;;;9.63;5.10;;;;;;;15.82;61.36;99874.03;1852904;77;22261;-68
2021/05/11 03:01:19;;;;;;;9.45;6.28;;;;;;;15.79;61.42;99875.30;1852487;77;22691;-68
2021/05/11 03:04:05;;;;;;;11.97;6.53;;;;;;;15.75;61.44;99872.73;1795870;78;28030;-68
2021/05/11 03:06:44;;;;;;;11.57;5.08;;;;;;;15.79;61.57;99879.84;1811644;77;22773;-68
2021/05/11 03:09:25;;;;;;;9.50;5.65;;;;;;;15.77;61.64;99869.30;1816140;77;22525;-68
2021/05/11 03:12:05;;;;;;;11.85;5.85;;;;;;;15.75;61.66;99874.59;1816191;77;22458;-68
2021/05/11 03:14:44;;;;;;;9.68;4.67;;;;;;;15.74;61.70;99872.94;1816165;77;22465;-68
2021/05/11 03:17:24;;;;;;;9.23;5.08;;;;;;;15.74;61.73;99874.28;1816048;77;22363;-68
2021/05/11 03:22:54;;;;;;;9.68;4.95;;;;;;;15.83;61.81;99867.62;1852768;77;21983;-68
2021/05/11 03:25:33;;;;;;;8.15;5.12;;;;;;;15.85;61.84;99860.15;1816150;77;22312;-68
2021/05/11 03:28:12;;;;;;;7.87;4.95;;;;;;;15.85;61.78;99865.53;1816262;77;22421;-68
2021/05/11 03:30:51;;;;;;;10.13;4.87;;;;;;;15.85;61.76;99860.15;1816267;77;22371;-68
2021/05/11 03:33:30;;;;;;;7.97;5.12;;;;;;;15.86;61.73;99855.91;1815867;77;22380;-68
2021/05/11 03:36:09;;;;;;;8.60;4.97;;;;;;;15.87;61.66;99855.37;1816229;77;22319;-68
2021/05/11 03:38:51;;;;;;;12.05;4.87;;;;;;;15.88;61.59;99848.95;1852621;77;22305;-68
2021/05/11 03:41:34;;;;;;;11.48;5.60;;;;;;;15.77;61.63;99835.69;1816464;77;22384;-65
2021/05/11 03:44:13;;;;;;;10.35;5.15;;;;;;;15.92;61.46;99848.83;1816260;77;22460;-68
2021/05/11 03:46:50;;;;;;;10.90;5.78;;;;;;;15.97;61.38;99847.67;1815967;77;22441;-68
2021/05/11 03:49:29;;;;;;;11.97;5.47;;;;;;;16.09;61.34;99848.59;1851982;77;22494;-68
2021/05/11 03:52:08;;;;;;;12.30;4.90;;;;;;;16.80;61.47;99846.31;1783226;79;23243;-68
2021/05/11 03:54:47;;;;;;;9.43;5.22;;;;;;;17.60;61.00;99844.30;1815838;77;22423;-68
2021/05/11 03:57:32;;;;;;;8.93;5.28;;;;;;;18.26;60.33;99841.39;1852477;77;22438;-69
2021/05/11 04:00:13;;;;;;;10.63;4.60;;;;;;;18.84;59.72;99833.33;1815780;77;22700;-69
2021/05/11 04:02:52;;;;;;;7.90;4.65;;;;;;;19.60;59.13;99831.38;1811365;78;22487;-66
2021/05/11 04:05:33;;;;;;;5.80;4.35;;;;;;;20.12;58.29;99830.12;1811310;78;23062;-69
2021/05/11 04:08:26;;;;;;;5.90;4.03;;;;;;;20.53;57.40;99832.13;1811454;78;22384;-66
2021/05/11 04:11:07;;;;;;;5.80;3.67;;;;;;;20.78;56.42;99830.61;1816257;77;22863;-67
2021/05/11 04:16:22;;;;;;;5.87;3.72;;;;;;;21.14;54.34;99822.45;1811558;78;22238;-67
2021/05/11 04:18:59;;;;;;;8.60;4.35;;;;;;;21.29;53.50;99825.31;1815912;77;22453;-67
2021/05/11 04:21:38;;;;;;;6.62;3.85;;;;;;;21.47;52.74;99816.55;1811461;78;22690;-67
2021/05/11 04:24:22;;;;;;;5.58;3.52;;;;;;;21.79;51.91;99817.42;1811608;78;23033;-69
2021/05/11 04:26:58;;;;;;;8.68;4.72;;;;;;;22.11;51.42;99816.11;1811445;77;22186;-69
2021/05/11 04:29:38;;;;;;;6.83;4.37;;;;;;;22.52;50.85;99813.17;1815516;77;22559;-67
2021/05/11 04:32:16;;;;;;;8.00;4.78;;;;;;;23.27;50.22;99816.81;1810670;77;22179;-67
2021/05/11 04:34:55;;;;;;;7.42;4.87;;;;;;;23.51;49.30;99813.09;1811322;78;22286;-69
2021/05/11 04:37:34;;;;;;;11.55;4.47;;;;;;;23.86;48.46;99808.53;1815998;77;22211;-70
2021/05/11 04:40:14;;;;;;;7.22;4.80;;;;;;;24.09;47.88;99805.00;1852568;77;22516;-67
2021/05/11 04:42:53;;;;;;;5.92;3.70;;;;;;;24.20;46.75;99804.77;1816027;77;23138;-67
2021/05/11 04:45:34;;;;;;;6.45;4.20;;;;;;;23.59;45.89;99805.77;1816055;77;22420;-67
2021/05/11 04:48:13;;;;;;;7.62;3.40;;;;;;;23.03;46.20;99800.14;1811537;77;22615;-69
2021/05/11 04:50:52;;;;;;;9.48;3.92;;;;;;;22.45;46.31;99803.86;1816266;77;22341;-67
2021/05/11 04:53:32;;;;;;;8.95;4.00;;;;;;;21.83;46.61;99810.41;1813317;77;22460;-70
2021/05/11 04:56:16;;;;;;;8.38;4.50;;;;;;;21.34;46.83;99811.82;1852614;77;22541;-69
2021/05/11 04:59:01;;;;;;;11.83;4.35;;;;;;;21.15;46.98;99807.79;1852485;77;23028;-70
2021/05/11 05:01:44;;;;;;;8.38;5.25;;;;;;;21.13;47.15;99812.66;1811488;78;22554;-70
2021/05/11 05:04:21;;;;;;;12.05;4.60;;;;;;;21.34;47.17;99812.36;1811574;77;22416;-70
2021/05/11 05:07:00;;;;;;;6.67;3.47;;;;;;;21.54;47.25;99799.00;1811615;78;23041;-69
2021/05/11 05:09:38;;;;;;;7.90;3.70;;;;;;;21.62;47.08;99796.36;1852794;77;22425;-67
2021/05/11 05:12:17;;;;;;;4.22;3.20;;;;;;;21.55;47.02;99791.68;1799380;78;22693;-70
2021/05/11 05:14:56;;;;;;;9.43;3.10;;;;;;;21.53;46.93;99787.06;1838379;77;22330;-70
2021/05/11 05:17:35;;;;;;;4.80;2.60;;;;;;;21.60;46.84;99776.81;1811606;78;22997;-67
2021/05/11 05:20:14;;;;;;;7.20;3.50;;;;;;;21.53;46.66;99773.49;1852757;77;22362;-70
2021/05/11 05:22:53;;;;;;;7.85;3.17;;;;;;;21.32;46.48;99773.83;1852761;77;22483;-70
2021/05/11 05:25:32;;;;;;;5.15;3.40;;;;;;;21.33;46.40;99774.91;1816370;77;22581;-70
2021/05/11 05:28:13;;;;;;;10.40;4.25;;;;;;;21.34;46.40;99768.95;1816229;77;22344;-67
2021/05/11 05:30:52;;;;;;;5.55;3.20;;;;;;;21.58;46.38;99771.63;1811631;77;22452;-67
2021/05/11 05:33:38;;;;;;;7.58;3.35;;;;;;;21.57;46.17;99769.19;1852593;77;23081;-70
2021/05/11 05:36:20;;;;;;;21.07;8.53;;;;;;;21.50;46.04;99772.66;1816172;77;22522;-70
2021/05/11 05:38:59;;;;;;;11.50;5.87;;;;;;;21.71;45.99;99767.13;1816040;77;22062;-69
2021/05/11 05:41:37;;;;;;;12.70;8.25;;;;;;;21.88;46.01;99771.09;1816034;77;22373;-67
2021/05/11 05:44:17;;;;;;;17.67;9.38;;;;;;;21.96;45.86;99778.78;1815588;77;22176;-70
2021/05/11 05:46:56;;;;;;;7.97;3.52;;;;;;;21.99;45.68;99771.47;1811257;77;22486;-67
2021/05/11 05:49:45;;;;;;;8.53;3.30;;;;;;;21.74;45.47;99763.90;1815959;77;22428;-70
2021/05/11 05:52:24;;;;;;;13.10;3.70;;;;;;;21.79;45.43;99761.77;1800571;77;28044;-70
2021/05/11 05:55:03;;;;;;;11.53;4.75;;;;;;;21.90;45.11;99758.10;1816164;77;22261;-70
2021/05/11 05:57:41;;;;;;;5.58;3.62;;;;;;;22.05;45.18;99751.44;1816333;77;23230;-70
2021/05/11 06:00:21;;;;;;;8.85;3.80;;;;;;;22.34;45.11;99749.98;1811489;78;22511;-70
2021/05/11 06:03:06;;;;;;;11.20;3.52;;;;;;;22.48;44.94;99753.62;1816265;77;22376;-68
2021/05/11 06:05:45;;;;;;;8.68;3.45;;;;;;;22.53;44.79;99750.37;1826367;77;22387;-70
2021/05/11 06:08:27;;;;;;;12.80;3.62;;;;;;;22.69;44.78;99755.39;1811472;78;22460;-67
2021/05/11 06:11:14;;;;;;;7.35;4.17;;;;;;;22.66;44.39;99753.97;1852800;77;22212;-70
2021/05/11 06:19:45;;;;;;;7.87;3.35;;;;;;;23.03;44.18;99737.58;1815935;77;22350;-70
2021/05/11 06:22:24;;;;;;;8.53;3.45;;;;;;;22.90;43.97;99736.72;1811413;78;22642;-70
2021/05/11 06:25:03;;;;;;;10.85;3.33;;;;;;;22.84;43.91;99736.41;1811472;78;22418;-70
2021/05/11 06:27:43;;;;;;;6.50;3.83;;;;;;;23.06;43.99;99723.44;1811543;78;22819;-67
2021/05/11 06:30:23;;;;;;;7.37;3.35;;;;;;;23.30;43.92;99725.12;1811224;78;22519;-68
2021/05/11 06:33:08;;;;;;;6.10;4.08;;;;;;;23.37;43.63;99724.31;1811415;78;22340;-70
2021/05/11 06:35:50;;;;;;;10.43;3.77;;;;;;;23.33;43.58;99726.75;1816135;77;22320;-70
2021/05/11 06:38:34;;;;;;;8.90;3.35;;;;;;;23.51;43.61;99723.27;1811405;78;22478;-70
2021/05/11 06:41:14;;;;;;;5.67;3.10;;;;;;;23.61;43.42;99723.30;1816058;77;22304;-70
2021/05/11 06:43:57;;;;;;;15.00;4.53;;;;;;;23.47;43.22;99719.48;1816169;77;22789;-70
2021/05/11 06:55:14;;;;;;;6.28;3.35;;;;;;;23.79;43.10;99725.45;1852610;77;22209;-68
2021/05/11 06:57:54;;;;;;;9.25;4.08;;;;;;;23.86;42.82;99719.19;1816052;77;22281;-68
2021/05/11 07:00:33;;;;;;;10.08;4.20;;;;;;;23.59;42.51;99722.20;1815708;77;22074;-68
2021/05/11 07:03:12;;;;;;;8.38;3.25;;;;;;;23.44;42.46;99710.47;1811491;78;22696;-68
2021/05/11 07:05:53;;;;;;;8.40;3.50;;;;;;;23.43;42.49;99707.49;1848456;76;21973;-67
2021/05/11 07:08:43;;;;;;;7.17;3.90;;;;;;;23.49;42.54;99700.95;1810411;77;23237;-68
2021/05/11 07:13:59;;;;;;;7.00;3.58;;;;;;;23.40;42.44;99697.38;1816053;77;22045;-67
2021/05/11 07:16:37;;;;;;;8.98;3.30;;;;;;;23.51;42.48;99696.87;1816126;77;22420;-67
2021/05/11 07:19:18;;;;;;;9.10;3.72;;;;;;;23.55;42.37;99688.44;1806759;77;22196;-68
2021/05/11 07:21:58;;;;;;;7.03;3.50;;;;;;;23.68;42.31;99690.60;1803735;77;22942;-68
2021/05/11 07:24:38;;;;;;;8.50;3.50;;;;;;;23.73;42.02;99689.79;1852717;77;22290;-68
2021/05/11 07:30:12;;;;;;;12.30;3.35;;;;;;;24.04;41.86;99690.02;1808922;78;22718;-68
2021/05/11 07:32:50;;;;;;;7.72;4.90;;;;;;;24.13;41.68;99687.06;1811455;77;22913;-68
2021/05/11 07:35:36;;;;;;;6.65;3.50;;;;;;;24.28;41.47;99684.28;1811143;78;22480;-68
2021/05/11 07:38:15;;;;;;;10.23;3.20;;;;;;;24.51;41.51;99687.48;1851920;77;22311;-68
2021/05/11 07:40:53;;;;;;;7.75;3.35;;;;;;;24.58;41.32;99679.82;1816234;77;22389;-68
2021/05/11 07:43:36;;;;;;;8.65;3.98;;;;;;;24.69;41.13;99681.41;1816164;77;22313;-69
2021/05/11 08:15:29;;;;;;;3.12;2.35;;;;;;;24.87;39.49;99664.45;1809048;77;22320;-69
2021/05/11 08:18:24;;;;;;;14.05;3.58;;;;;;;24.73;39.43;99666.13;1801358;78;22584;-69
2021/05/11 08:29:53;;;;;;;8.78;3.83;;;;;;;25.35;39.55;99657.29;1810960;78;22924;-69
2021/05/11 08:32:32;;;;;;;5.33;2.72;;;;;;;25.46;39.45;99654.75;1812659;77;22329;-69
2021/05/11 08:35:11;;;;;;;3.98;2.50;;;;;;;25.56;39.58;99653.33;1815262;77;22933;-69
2021/05/11 08:37:50;;;;;;;8.50;2.60;;;;;;;25.80;39.61;99653.38;1812772;77;22415;-69
2021/05/11 08:40:30;;;;;;;6.22;2.92;;;;;;;25.83;39.47;99655.53;1804165;77;22375;-69
2021/05/11 08:43:31;;;;;;;7.03;3.12;;;;;;;25.78;39.22;99654.23;1815904;77;22061;-69
2021/05/11 08:46:11;;;;;;;6.72;3.75;;;;;;;25.59;38.95;99654.66;1811363;77;22545;-69
2021/05/11 08:49:00;;;;;;;5.28;2.85;;;;;;;25.67;39.11;99650.77;1852238;77;22962;-69
2021/05/11 08:51:45;;;;;;;5.75;3.60;;;;;;;25.89;39.27;99649.48;1811296;78;22538;-71
2021/05/11 09:23:34;;;;;;;12.45;3.47;;;;;;;25.85;38.28;99647.88;1811279;78;22496;-68
2021/05/11 09:26:21;;;;;;;12.75;2.98;;;;;;;25.96;38.22;99649.41;1816186;77;22134;-68
2021/05/11 09:29:05;;;;;;;10.38;3.35;;;;;;;25.98;38.31;99645.00;1852427;77;22566;-69
2021/05/11 09:55:18;;;;;;;9.05;2.95;;;;;;;26.87;37.82;99646.98;1811513;78;23378;-68
2021/05/11 10:13:37;;;;;;;8.73;2.98;;;;;;;27.51;37.47;99652.33;1815877;77;22290;-69
2021/05/11 10:36:27;;;;;;;8.50;2.60;;;;;;;27.66;35.72;99628.76;1842537;77;28383;-69
2021/05/11 10:48:34;;;;;;;6.42;2.77;;;;;;;27.61;34.42;99621.46;1800413;77;27855;-69
2021/05/11 10:51:21;;;;;;;4.87;2.25;;;;;;;27.79;34.12;99613.73;1852694;77;22679;-68
2021/05/11 10:54:02;;;;;;;7.08;2.10;;;;;;;27.92;34.31;99617.59;1852669;77;22035;-69
2021/05/11 10:56:43;;;;;;;11.33;2.65;;;;;;;27.99;34.21;99611.16;1805808;77;22245;-69
2021/05/11 11:02:35;;;;;;;7.90;3.27;;;;;;;28.12;34.38;99608.19;1831055;77;23126;-69
2021/05/11 11:05:06;;;;;;;4.55;2.00;;;;;;;28.12;34.21;99603.52;1793827;77;22551;-69
2021/05/11 11:07:48;;;;;;;5.37;2.33;;;;;;;28.20;34.23;99604.74;1813213;77;22376;-71
2021/05/11 11:10:29;;;;;;;8.83;2.33;;;;;;;28.07;33.63;99603.64;1815323;77;22244;-69
2021/05/11 11:13:08;;;;;;;9.88;2.47;;;;;;;28.08;33.58;99605.24;1849932;77;22223;-71
2021/05/11 11:15:47;;;;;;;8.23;2.65;;;;;;;27.98;33.15;99599.93;1806935;77;22883;-68
2021/05/11 11:18:33;;;;;;;5.72;2.50;;;;;;;27.92;33.25;99595.67;1800911;77;22342;-69
2021/05/11 11:23:58;;;;;;;7.72;2.52;;;;;;;28.33;33.60;99584.71;1781769;79;27902;-68
2021/05/11 11:26:40;;;;;;;6.08;1.90;;;;;;;28.51;33.39;99588.45;1834671;77;22448;-68
2021/05/11 11:32:01;;;;;;;7.00;2.40;;;;;;;28.69;33.35;99584.78;1795771;79;23127;-69
2021/05/11 11:34:40;;;;;;;4.67;2.58;;;;;;;28.57;33.16;99580.38;1815301;77;22327;-69
2021/05/11 11:37:18;;;;;;;6.45;2.30;;;;;;;28.53;32.81;99576.63;1815604;77;22538;-71
2021/05/11 11:40:00;;;;;;;4.30;2.02;;;;;;;28.54;32.53;99568.06;1815403;77;22278;-69
2021/05/11 11:42:40;;;;;;;6.67;1.80;;;;;;;28.60;32.40;99577.02;1815625;77;23259;-71
2021/05/11 11:45:25;;;;;;;4.03;2.37;;;;;;;28.72;32.53;99563.58;1856714;76;22010;-69
2021/05/11 11:48:06;;;;;;;11.40;2.05;;;;;;;28.88;32.56;99566.23;1808163;77;22829;-68
2021/05/11 11:50:54;;;;;;;6.80;2.42;;;;;;;28.85;32.13;99563.30;1851720;77;22394;-69
2021/05/11 11:53:37;;;;;;;8.08;2.37;;;;;;;28.91;32.15;99561.49;1815372;77;22277;-69
2021/05/11 11:56:35;;;;;;;11.45;2.47;;;;;;;29.03;32.02;99563.10;1852034;77;22063;-69
2021/05/11 11:59:06;;;;;;;7.03;2.15;;;;;;;29.07;31.79;99562.73;1780521;77;28707;-68
2021/05/11 12:02:02;;;;;;;4.42;1.40;;;;;;;29.32;31.45;99559.13;1824435;77;22287;-69
2021/05/11 12:04:48;;;;;;;8.25;1.90;;;;;;;29.29;31.24;99555.08;1836094;77;27860;-68
2021/05/11 12:07:34;;;;;;;6.03;1.62;;;;;;;29.44;30.71;99552.50;1794757;77;22335;-69
2021/05/11 12:10:13;;;;;;;4.90;1.70;;;;;;;29.31;30.12;99548.70;1809617;77;27883;-69
2021/05/11 12:12:58;;;;;;;4.92;1.57;;;;;;;29.40;29.62;99539.95;1826954;77;22228;-68
2021/05/11 12:15:38;;;;;;;8.60;2.10;;;;;;;29.38;29.92;99539.45;1835622;77;27863;-68
2021/05/11 12:18:19;;;;;;;3.50;1.72;;;;;;;29.52;29.54;99539.38;1805114;77;22076;-68
2021/05/11 12:21:01;;;;;;;6.30;2.05;;;;;;;29.47;29.33;99538.13;1851878;77;22380;-68
2021/05/11 12:23:40;;;;;;;11.25;2.67;;;;;;;29.45;29.29;99534.91;1815594;77;22258;-69
2021/05/11 12:26:20;;;;;;;4.85;2.58;;;;;;;29.46;29.18;99544.19;1851887;76;22664;-68
2021/05/11 12:29:11;;;;;;;10.78;2.20;;;;;;;29.40;29.08;99533.65;1825236;77;22018;-68
2021/05/11 12:31:50;;;;;;;7.42;1.82;;;;;;;29.46;29.20;99532.38;1818410;77;22130;-69
2021/05/11 12:34:28;;;;;;;3.35;2.27;;;;;;;29.43;28.83;99532.45;1815210;77;22354;-69
2021/05/11 12:37:07;;;;;;;3.45;1.60;;;;;;;29.34;28.55;99522.55;1810560;78;23029;-69
2021/05/11 12:39:51;;;;;;;4.28;1.30;;;;;;;29.30;28.14;99524.30;1808564;78;23134;-69
2021/05/11 12:42:39;;;;;;;4.62;1.50;;;;;;;29.25;27.51;99521.90;1851908;77;22355;-69
2021/05/11 12:45:17;;;;;;;3.58;1.55;;;;;;;29.22;27.48;99514.30;1794337;77;23094;-69
2021/05/11 12:48:04;;;;;;;7.47;1.32;;;;;;;29.32;27.64;99512.42;1836113;77;27813;-69
2021/05/11 12:50:45;;;;;;;3.72;1.80;;;;;;;29.46;26.89;99520.83;1810899;78;22435;-69
2021/05/11 12:53:37;;;;;;;5.03;2.85;;;;;;;29.48;26.92;99519.16;1810574;78;22435;-69
2021/05/11 12:56:59;;;;;;;12.50;1.70;;;;;;;29.60;27.28;99517.98;1852035;77;22305;-69
2021/05/11 12:59:51;;;;;;;4.70;1.50;;;;;;;29.68;27.16;99499.34;1852184;77;22570;-69
2021/05/11 13:14:54;;;;;;;5.17;1.20;;;;;;;29.63;25.10;99493.98;1814835;77;22310;-69
2021/05/11 13:17:10;;;;;;;4.08;1.10;;;;;;;29.59;24.49;99483.40;1815511;77;22383;-69
2021/05/11 13:22:37;;;;;;;6.42;1.15;;;;;;;29.65;24.16;99482.13;1815380;77;22030;-69
2021/05/11 13:25:25;;;;;;;4.17;1.50;;;;;;;29.68;24.24;99471.86;1805928;77;22444;-69
2021/05/11 13:28:31;;;;;;;4.10;1.22;;;;;;;29.73;24.27;99466.23;1820939;75;26322;-69
2021/05/11 13:34:11;;;;;;;3.12;1.25;;;;;;;29.83;23.69;99463.18;1811453;77;22476;-69
2021/05/11 13:36:51;;;;;;;5.72;1.22;;;;;;;29.86;22.85;99476.31;1809072;78;22579;-69
2021/05/11 13:39:29;;;;;;;7.17;1.00;;;;;;;29.88;22.71;99465.80;1821982;77;22412;-69
2021/05/11 13:42:15;;;;;;;7.47;1.17;;;;;;;29.95;23.00;99462.57;1816252;77;27809;-69
2021/05/11 13:44:54;;;;;;;6.40;1.40;;;;;;;30.06;22.72;99463.89;1796926;77;22194;-69
2021/05/11 13:47:34;;;;;;;7.22;1.65;;;;;;;30.07;22.81;99467.70;1829021;77;22016;-69
2021/05/11 13:50:18;;;;;;;6.80;1.37;;;;;;;30.06;22.47;99459.20;1831407;77;22084;-68
2021/05/11 13:52:58;;;;;;;4.42;1.20;;;;;;;30.07;22.36;99453.95;1788313;77;22508;-68
2021/05/11 14:04:21;;;;;;;4.75;1.62;;;;;;;30.05;22.33;99438.32;1834881;77;22330;-68
2021/05/11 14:07:01;;;;;;;3.17;1.12;;;;;;;30.03;22.54;99435.09;1784956;79;22329;-68
2021/05/11 14:09:40;;;;;;;7.10;1.22;;;;;;;30.12;22.60;99440.59;1788893;78;22226;-68
2021/05/11 14:12:19;;;;;;;5.08;1.22;;;;;;;30.13;22.24;99439.47;1797778;77;22961;-69
2021/05/11 14:14:58;;;;;;;2.67;1.10;;;;;;;30.13;22.41;99437.53;1829161;77;22444;-68
2021/05/11 14:17:43;;;;;;;5.20;1.90;;;;;;;30.17;22.05;99428.88;1831141;77;23685;-69
2021/05/11 14:20:22;;;;;;;6.15;1.20;;;;;;;30.22;22.17;99434.80;1839490;77;22447;-69
2021/05/11 14:23:00;;;;;;;6.58;1.00;;;;;;;30.24;21.36;99438.02;1800549;77;22364;-69
2021/05/11 14:25:38;;;;;;;6.75;1.27;;;;;;;30.26;21.06;99429.46;1820514;77;23033;-68
2021/05/11 14:28:17;;;;;;;5.12;1.00;;;;;;;30.26;20.88;99423.95;1822588;77;22430;-69
2021/05/11 14:30:56;;;;;;;8.10;2.00;;;;;;;30.23;21.11;99420.70;1796873;78;22718;-69
2021/05/11 14:33:34;;;;;;;3.42;1.25;;;;;;;30.22;21.34;99423.20;1825729;77;22365;-69
2021/05/11 14:36:13;;;;;;;5.67;1.70;;;;;;;30.16;21.75;99414.87;1800410;77;22402;-69
2021/05/11 14:38:53;;;;;;;5.70;1.15;;;;;;;30.19;22.18;99418.35;1792576;77;22325;-68
2021/05/11 14:41:31;;;;;;;5.08;0.93;;;;;;;30.15;22.38;99424.25;1824322;77;22944;-68
2021/05/11 14:44:11;;;;;;;7.10;1.90;;;;;;;30.16;22.57;99419.00;1806973;77;22394;-69
2021/05/11 14:46:50;;;;;;;6.72;1.02;;;;;;;30.11;22.58;99415.05;1834607;77;22611;-68
2021/05/11 14:49:31;;;;;;;11.00;1.75;;;;;;;30.13;22.60;99407.84;1786791;78;22471;-68
2021/05/11 14:52:12;;;;;;;7.05;1.65;;;;;;;30.09;22.65;99414.55;1838136;77;22985;-68
2021/05/11 14:54:56;;;;;;;5.75;1.30;;;;;;;30.11;22.98;99415.05;1793714;78;22552;-68
2021/05/11 14:57:36;;;;;;;5.17;1.57;;;;;;;30.08;23.21;99410.17;1836606;77;22110;-69
2021/05/11 15:00:16;;;;;;;6.70;1.77;;;;;;;30.09;23.25;99409.61;1811460;78;22407;-69
2021/05/11 15:02:55;;;;;;;9.18;1.50;;;;;;;30.13;23.40;99415.53;1801593;77;22458;-69
2021/05/11 15:05:34;;;;;;;9.30;1.57;;;;;;;30.14;23.40;99416.34;1823070;77;22278;-69
2021/05/11 15:08:14;;;;;;;6.47;1.67;;;;;;;30.08;23.45;99412.92;1806654;77;22279;-69
2021/05/11 15:10:53;;;;;;;6.78;1.22;;;;;;;30.01;23.36;99402.97;1823459;77;22363;-69
2021/05/11 15:13:31;;;;;;;3.85;2.22;;;;;;;29.95;23.35;99402.89;1803029;77;22508;-68
2021/05/11 15:16:12;;;;;;;6.05;1.50;;;;;;;29.87;23.43;99406.45;1810079;77;22339;-68
2021/05/11 15:18:50;;;;;;;2.42;1.10;;;;;;;29.88;23.53;99397.61;1826046;77;23103;-69
2021/05/11 15:21:30;;;;;;;5.67;1.52;;;;;;;29.88;23.64;99398.43;1806795;77;23012;-68
2021/05/11 15:24:14;;;;;;;6.40;1.62;;;;;;;29.87;23.74;99402.33;1822098;77;22447;-68
2021/05/11 15:26:53;;;;;;;5.40;1.55;;;;;;;29.82;23.73;99403.81;1805495;77;22123;-68
2021/05/11 15:29:32;;;;;;;3.15;1.52;;;;;;;29.79;23.79;99394.84;1799994;79;22582;-69
2021/05/11 15:32:41;;;;;;;7.05;1.50;;;;;;;29.79;23.72;99398.96;1804511;77;22352;-69
2021/05/11 15:35:24;;;;;;;6.42;2.50;;;;;;;29.81;23.83;99396.69;1794685;78;23097;-69
2021/05/11 15:38:06;;;;;;;8.78;1.45;;;;;;;29.81;23.76;99395.31;1795897;77;22452;-69
2021/05/11 15:40:44;;;;;;;6.45;2.50;;;;;;;29.79;23.75;99395.40;1809444;77;22338;-68
2021/05/11 15:43:24;;;;;;;4.20;1.52;;;;;;;29.76;23.94;99384.48;1797186;78;22396;-71
2021/05/11 15:46:11;;;;;;;6.28;2.35;;;;;;;29.78;24.01;99389.09;1823956;77;23045;-68
2021/05/11 15:48:49;;;;;;;4.75;1.27;;;;;;;29.75;24.08;99386.42;1834503;77;22422;-68
2021/05/11 15:51:28;;;;;;;6.37;1.52;;;;;;;29.68;24.00;99387.47;1797259;77;22764;-68
2021/05/11 15:54:07;;;;;;;9.00;2.17;;;;;;;29.66;24.04;99394.42;1819907;77;22172;-68
2021/05/11 15:56:46;;;;;;;3.30;1.40;;;;;;;29.65;24.10;99380.42;1798803;78;22398;-69
2021/05/11 15:59:32;;;;;;;6.80;2.10;;;;;;;29.63;24.18;99386.78;1797054;78;27924;-69
2021/05/11 16:02:10;;;;;;;14.98;10.38;;;;;;;29.67;24.10;99382.27;1820677;77;22671;-68
2021/05/11 16:04:49;;;;;;;13.18;11.70;;;;;;;29.60;24.38;99390.17;1802032;77;22465;-68
2021/05/11 16:07:29;;;;;;;23.18;16.52;;;;;;;29.56;24.73;99391.38;1802201;77;22125;-68
2021/05/11 16:10:09;;;;;;;6.40;3.25;;;;;;;29.52;24.95;99389.61;1821676;77;23038;-68
2021/05/11 16:12:55;;;;;;;6.65;2.37;;;;;;;29.47;25.04;99384.25;1822884;77;22638;-68
2021/05/11 16:15:39;;;;;;;79.42;49.65;;;;;;;29.39;25.14;99380.91;1818090;78;22216;-68
2021/05/11 16:18:18;;;;;;;10.63;3.70;;;;;;;29.36;25.26;99387.04;1839267;77;23071;-68
2021/05/11 16:20:58;;;;;;;22.15;12.90;;;;;;;29.35;25.29;99388.16;1796847;78;22554;-69
2021/05/11 16:23:38;;;;;;;2.62;1.65;;;;;;;29.30;25.22;99381.45;1818879;77;22373;-68
2021/05/11 16:26:25;;;;;;;7.42;2.45;;;;;;;29.25;25.19;99384.55;1822334;77;22126;-69
2021/05/11 16:29:04;;;;;;;5.70;2.12;;;;;;;29.21;25.19;99381.38;1804891;77;22339;-68
2021/05/11 16:31:47;;;;;;;4.83;1.80;;;;;;;29.18;25.17;99384.77;1807455;77;22498;-68
2021/05/11 16:34:25;;;;;;;9.80;1.60;;;;;;;29.14;25.20;99380.47;1805566;77;22389;-72
2021/05/11 16:37:10;;;;;;;5.35;2.62;;;;;;;29.07;25.27;99386.16;1835078;77;23094;-69
2021/05/11 16:39:48;;;;;;;31.02;20.70;;;;;;;29.01;25.46;99382.76;1817435;77;22321;-69
2021/05/11 16:42:28;;;;;;;25.40;12.15;;;;;;;28.97;25.66;99381.77;1801489;77;22413;-68